Time;durP1;ratioP1;P1;durP2;ratioP2;P2;SDS_P1;SDS_P2;PMS_P1;PMS_P2;Temp;Humidity;BMP_temperature;BMP_pressure;BME280_temperature;BME280_humidity;BME280_pressure;Samples;Min_cycle;Max_cycle;Signal;HPM_P1;HPM_P2
2023/05/18 00:02:15;;;;;;;9.52;3.00;;;7.40;99.90;;;;;;5013266;28;20045;-81
2023/05/18 00:04:41;;;;;;;5.70;2.65;;;7.30;1.00;;;;;;5012984;28;20033;-81
2023/05/18 00:07:08;;;;;;;12.88;2.70;;;7.20;99.90;;;;;;4999986;28;20048;-81
2023/05/18 00:09:35;;;;;;;6.05;2.92;;;7.10;99.90;;;;;;4982975;28;20183;-81
2023/05/18 00:12:03;;;;;;;7.43;2.63;;;7.00;99.90;;;;;;5012343;28;20068;-81
2023/05/18 00:14:30;;;;;;;8.93;2.60;;;6.90;1.00;;;;;;5007643;28;20249;-81
2023/05/18 00:16:56;;;;;;;7.45;3.03;;;6.90;99.90;;;;;;4998603;28;20044;-81
2023/05/18 00:19:23;;;;;;;7.38;2.78;;;6.80;80.60;;;;;;4995933;28;20408;-81
2023/05/18 00:21:50;;;;;;;10.75;3.63;;;6.80;69.00;;;;;;4994753;28;20052;-82
2023/05/18 00:24:16;;;;;;;7.55;2.85;;;6.70;99.90;;;;;;4986529;28;20068;-81
2023/05/18 00:26:45;;;;;;;8.02;2.83;;;6.80;99.90;;;;;;4996006;28;20159;-82
2023/05/18 00:29:11;;;;;;;11.63;3.38;;;6.80;99.90;;;;;;4978720;28;20658;-81
2023/05/18 00:31:38;;;;;;;9.18;2.97;;;6.80;99.90;;;;;;4995872;28;20153;-82
2023/05/18 00:34:08;;;;;;;7.65;2.72;;;6.80;99.90;;;;;;4998777;28;20432;-81
2023/05/18 00:36:34;;;;;;;10.00;2.90;;;6.90;84.70;;;;;;4993805;28;20062;-81
2023/05/18 00:39:01;;;;;;;9.20;2.72;;;6.90;99.90;;;;;;5015333;28;20046;-81
2023/05/18 00:41:27;;;;;;;11.57;2.42;;;6.90;99.90;;;;;;5013824;28;20550;-81
2023/05/18 00:43:53;;;;;;;7.43;2.88;;;6.90;54.40;;;;;;4996434;28;20743;-81
2023/05/18 00:46:19;;;;;;;5.35;2.60;;;6.90;1.00;;;;;;5000936;28;20041;-81
2023/05/18 00:48:45;;;;;;;8.02;2.85;;;6.80;99.90;;;;;;5013984;28;20384;-81
2023/05/18 00:51:12;;;;;;;9.68;3.05;;;6.80;99.90;;;;;;4978070;28;20034;-81
2023/05/18 00:53:37;;;;;;;7.18;2.85;;;6.90;99.90;;;;;;5015251;28;20303;-81
2023/05/18 00:56:12;;;;;;;9.48;3.00;;;6.90;99.90;;;;;;4996493;28;20284;-81
2023/05/18 00:58:38;;;;;;;;;;;6.90;99.90;;;;;;4978487;28;20045;-81
2023/05/18 01:01:04;;;;;;;6.78;2.75;;;7.00;23.00;;;;;;4994572;28;19917;-82
2023/05/18 01:03:37;;;;;;;6.53;2.70;;;7.00;99.90;;;;;;4981072;28;20285;-82
2023/05/18 01:06:04;;;;;;;9.07;3.05;;;7.10;99.90;;;;;;4994123;28;20052;-81
2023/05/18 01:08:31;;;;;;;6.68;2.92;;;7.10;99.90;;;;;;4995274;28;20041;-81
2023/05/18 01:11:17;;;;;;;7.85;2.85;;;7.10;99.90;;;;;;5009187;28;20500;-81
2023/05/18 01:14:03;;;;;;;12.15;3.33;;;7.10;99.90;;;;;;5011572;28;20533;-81
2023/05/18 01:16:36;;;;;;;7.53;2.75;;;7.10;99.90;;;;;;5010039;28;20033;-81
2023/05/18 01:19:23;;;;;;;10.25;2.90;;;7.20;99.90;;;;;;4976876;28;20214;-81
2023/05/18 01:22:14;;;;;;;7.35;2.90;;;7.20;99.90;;;;;;4994369;28;20397;-81
2023/05/18 01:25:08;;;;;;;11.18;3.30;;;7.30;1.00;;;;;;4989019;28;20157;-81
2023/05/18 01:27:36;;;;;;;11.15;2.80;;;7.30;99.90;;;;;;4990379;28;20052;-81
2023/05/18 01:30:06;;;;;;;9.93;2.88;;;7.30;99.90;;;;;;4976716;28;20389;-81
2023/05/18 01:32:39;;;;;;;7.35;2.67;;;7.30;99.90;;;;;;4995741;28;20400;-81
2023/05/18 01:35:05;;;;;;;8.10;2.92;;;7.30;99.90;;;;;;4992505;28;20086;-81
2023/05/18 01:37:31;;;;;;;10.73;3.38;;;7.30;99.90;;;;;;4981038;28;20037;-81
2023/05/18 01:39:57;;;;;;;8.55;3.10;;;7.30;99.90;;;;;;4998349;28;20099;-81
2023/05/18 01:42:26;;;;;;;8.57;2.92;;;7.30;99.90;;;;;;5012802;28;20037;-81
2023/05/18 01:45:06;;;;;;;8.45;3.28;;;7.30;99.90;;;;;;4978749;28;20045;-81
2023/05/18 01:47:38;;;;;;;6.45;2.85;;;7.30;99.90;;;;;;4995888;28;20473;-81
2023/05/18 01:50:17;;;;;;;10.85;3.58;;;7.30;99.90;;;;;;4982567;28;20128;-81
2023/05/18 01:52:52;;;;;;;8.63;2.95;;;7.40;99.90;;;;;;4984241;28;20049;-81
2023/05/18 01:55:19;;;;;;;8.23;3.10;;;7.40;99.90;;;;;;4998140;28;20159;-82
2023/05/18 01:57:47;;;;;;;8.05;2.85;;;7.40;99.90;;;;;;4977271;28;20157;-81
2023/05/18 02:00:16;;;;;;;9.75;3.38;;;7.40;99.90;;;;;;4985345;28;20523;-81
2023/05/18 02:02:42;;;;;;;6.80;2.97;;;7.30;99.90;;;;;;4978314;28;20085;-81
2023/05/18 02:05:11;;;;;;;9.80;3.28;;;7.40;99.90;;;;;;4992927;28;20496;-81
2023/05/18 02:07:38;;;;;;;8.13;3.50;;;7.40;99.90;;;;;;4996322;28;20120;-81
2023/05/18 02:10:05;;;;;;;10.77;3.58;;;7.30;99.90;;;;;;4977824;28;20133;-82
2023/05/18 02:12:30;;;;;;;10.10;3.42;;;7.40;99.90;;;;;;4987536;28;20054;-81
2023/05/18 02:14:57;;;;;;;9.23;3.25;;;7.40;99.90;;;;;;4975584;28;20056;-81
2023/05/18 02:17:25;;;;;;;7.65;3.20;;;7.40;99.90;;;;;;4972254;28;20457;-82
2023/05/18 02:19:51;;;;;;;8.57;3.35;;;7.40;99.90;;;;;;4963114;28;20204;-81
2023/05/18 02:22:16;;;;;;;5.93;2.92;;;7.40;99.90;;;;;;4978149;28;20054;-81
2023/05/18 02:24:42;;;;;;;11.00;3.10;;;7.40;99.90;;;;;;4978001;28;20069;-81
2023/05/18 02:27:08;;;;;;;7.65;3.40;;;7.40;99.90;;;;;;4993597;28;20080;-81
2023/05/18 02:29:33;;;;;;;7.35;3.10;;;7.40;99.90;;;;;;4975383;28;20046;-81
2023/05/18 02:31:59;;;;;;;6.38;3.20;;;7.40;99.90;;;;;;4980546;28;20309;-81
2023/05/18 02:34:26;;;;;;;5.22;2.65;;;7.40;99.90;;;;;;4959569;28;20350;-81
2023/05/18 02:36:56;;;;;;;8.65;3.55;;;7.40;99.90;;;;;;4974594;28;20492;-81
2023/05/18 02:39:22;;;;;;;7.43;2.80;;;7.40;99.90;;;;;;4986737;28;20050;-81
2023/05/18 02:41:48;;;;;;;8.85;3.20;;;7.40;99.90;;;;;;4956207;28;20085;-81
2023/05/18 02:44:13;;;;;;;8.50;3.20;;;7.40;99.90;;;;;;4970944;28;20445;-82
2023/05/18 02:46:39;;;;;;;9.48;3.40;;;7.30;99.90;;;;;;4993969;28;20041;-81
2023/05/18 02:49:05;;;;;;;6.05;3.30;;;7.30;99.90;;;;;;4990328;28;20043;-81
2023/05/18 02:51:31;;;;;;;7.45;2.97;;;7.30;99.90;;;;;;4990319;28;20046;-82
2023/05/18 02:53:56;;;;;;;5.53;2.97;;;7.40;99.90;;;;;;4983055;28;20049;-81
2023/05/18 02:56:22;;;;;;;8.40;3.50;;;7.40;99.90;;;;;;4961620;28;20631;-81
2023/05/18 02:58:48;;;;;;;8.25;3.40;;;7.40;99.90;;;;;;4961592;28;20108;-81
2023/05/18 03:01:13;;;;;;;6.82;3.10;;;7.40;99.90;;;;;;4987387;28;20134;-81
2023/05/18 03:03:40;;;;;;;6.47;3.53;;;7.40;99.90;;;;;;4975593;28;20034;-81
2023/05/18 03:06:08;;;;;;;5.63;3.00;;;7.40;99.90;;;;;;4978815;28;20084;-81
2023/05/18 03:08:35;;;;;;;9.10;3.22;;;7.50;99.90;;;;;;4974988;28;20045;-82
2023/05/18 03:11:01;;;;;;;9.85;3.13;;;7.50;99.90;;;;;;4959471;28;20088;-82
2023/05/18 03:13:27;;;;;;;6.15;3.40;;;7.50;99.90;;;;;;4986501;28;20061;-81
2023/05/18 03:15:55;;;;;;;8.43;3.47;;;7.50;99.90;;;;;;4980961;28;20042;-81
2023/05/18 03:18:21;;;;;;;7.97;3.30;;;7.50;99.90;;;;;;4991854;28;20507;-82
2023/05/18 03:20:50;;;;;;;9.38;3.40;;;7.50;99.90;;;;;;4993457;28;20038;-81
2023/05/18 03:23:17;;;;;;;6.85;3.42;;;7.50;99.90;;;;;;4979281;28;20041;-81
2023/05/18 03:25:43;;;;;;;6.78;3.17;;;7.40;99.90;;;;;;4979955;28;20045;-81
2023/05/18 03:28:09;;;;;;;6.43;2.95;;;7.40;99.90;;;;;;4998357;28;20060;-81
2023/05/18 03:30:35;;;;;;;9.48;2.90;;;7.40;99.90;;;;;;5006556;28;20049;-81
2023/05/18 03:33:01;;;;;;;11.20;3.22;;;7.40;99.90;;;;;;4981203;28;20052;-81
2023/05/18 03:35:27;;;;;;;8.15;2.97;;;7.50;99.90;;;;;;4994443;28;20037;-81
2023/05/18 03:37:58;;;;;;;6.68;3.25;;;7.50;99.90;;;;;;5011752;28;20131;-81
2023/05/18 03:40:24;;;;;;;7.00;3.20;;;7.50;99.90;;;;;;4981343;28;20992;-81
2023/05/18 03:42:50;;;;;;;8.68;2.88;;;7.50;99.90;;;;;;4980635;28;20120;-81
2023/05/18 03:45:17;;;;;;;6.28;3.03;;;7.50;99.90;;;;;;4989724;28;20077;-81
2023/05/18 03:47:42;;;;;;;8.20;3.00;;;7.50;99.90;;;;;;4976187;28;20041;-81
2023/05/18 03:50:08;;;;;;;9.77;3.88;;;7.50;99.90;;;;;;5014657;28;20053;-81
2023/05/18 03:52:35;;;;;;;5.88;3.55;;;7.50;99.90;;;;;;5012623;28;20040;-81
2023/05/18 03:55:02;;;;;;;6.13;3.30;;;7.50;99.90;;;;;;5016905;28;20072;-81
2023/05/18 03:57:28;;;;;;;6.40;3.30;;;7.60;99.90;;;;;;4996110;28;20050;-81
2023/05/18 03:59:55;;;;;;;7.80;3.30;;;7.60;99.90;;;;;;4997747;28;20045;-82
2023/05/18 04:02:21;;;;;;;6.43;3.45;;;7.70;99.90;;;;;;4999241;28;20041;-81
2023/05/18 04:04:47;;;;;;;6.78;3.60;;;7.70;99.90;;;;;;5018020;28;20168;-81
2023/05/18 04:07:17;;;;;;;8.40;3.83;;;7.70;99.90;;;;;;4997760;28;20044;-81
2023/05/18 04:09:42;;;;;;;6.95;3.75;;;7.70;99.90;;;;;;4996561;28;20470;-81
2023/05/18 04:12:11;;;;;;;6.22;3.35;;;7.70;99.90;;;;;;5011205;28;20057;-82
2023/05/18 04:14:41;;;;;;;10.63;3.50;;;7.80;99.90;;;;;;4982025;28;20141;-81
2023/05/18 04:17:09;;;;;;;7.03;3.28;;;7.70;99.90;;;;;;5010807;28;20057;-81
2023/05/18 04:19:36;;;;;;;7.70;3.22;;;7.80;99.90;;;;;;5016896;28;20045;-81
2023/05/18 04:22:05;;;;;;;7.80;2.95;;;7.80;99.90;;;;;;5011745;28;20329;-82
2023/05/18 04:24:31;;;;;;;7.40;3.42;;;7.80;99.90;;;;;;4996707;28;20037;-81
2023/05/18 04:27:03;;;;;;;7.88;3.35;;;7.90;99.90;;;;;;5012573;28;20195;-81
2023/05/18 04:29:29;;;;;;;12.20;3.47;;;7.90;99.90;;;;;;4999320;28;20049;-81
2023/05/18 04:32:01;;;;;;;6.93;3.20;;;8.00;99.90;;;;;;5002488;28;20029;-81
2023/05/18 04:34:28;;;;;;;6.65;2.95;;;7.90;99.90;;;;;;4999106;28;20556;-81
2023/05/18 04:36:54;;;;;;;8.63;3.33;;;8.00;99.90;;;;;;4995818;28;20046;-81
2023/05/18 04:39:23;;;;;;;11.63;3.50;;;8.10;99.90;;;;;;4983607;28;20099;-81
2023/05/18 04:41:58;;;;;;;12.35;3.50;;;8.20;99.90;;;;;;4998254;28;20046;-81
2023/05/18 04:44:24;;;;;;;13.68;3.63;;;8.30;99.90;;;;;;4982689;28;20041;-81
2023/05/18 04:46:51;;;;;;;8.20;3.55;;;8.30;99.90;;;;;;4978646;28;20115;-81
2023/05/18 04:49:20;;;;;;;9.07;3.40;;;8.30;99.90;;;;;;4995291;28;20129;-81
2023/05/18 04:51:54;;;;;;;10.52;3.53;;;8.30;99.90;;;;;;4982998;28;20033;-81
2023/05/18 04:54:32;;;;;;;7.78;3.47;;;8.30;99.90;;;;;;5013918;28;20045;-81
2023/05/18 04:56:58;;;;;;;5.63;3.30;;;8.40;99.90;;;;;;4995190;28;20099;-81
2023/05/18 04:59:25;;;;;;;8.60;3.17;;;8.40;99.90;;;;;;4992109;28;20448;-81
2023/05/18 05:01:51;;;;;;;11.60;3.10;;;8.40;99.90;;;;;;4999244;28;20065;-81
2023/05/18 05:04:19;;;;;;;13.75;4.20;;;8.50;99.90;;;;;;4977460;28;20042;-82
2023/05/18 05:06:48;;;;;;;4.63;2.88;;;8.50;99.90;;;;;;4981181;28;20065;-82
2023/05/18 05:09:14;;;;;;;6.65;3.10;;;8.60;99.90;;;;;;4999262;28;20079;-81
2023/05/18 05:11:40;;;;;;;7.63;3.10;;;8.60;99.90;;;;;;4979736;28;20096;-81
2023/05/18 05:14:06;;;;;;;8.10;3.67;;;8.60;99.90;;;;;;4975499;28;20142;-81
2023/05/18 05:16:35;;;;;;;10.05;3.00;;;8.70;99.90;;;;;;5006950;28;20034;-82
2023/05/18 05:19:01;;;;;;;6.75;2.88;;;8.70;99.90;;;;;;4977459;28;20046;-82
2023/05/18 05:21:27;;;;;;;8.25;2.90;;;8.70;99.90;;;;;;4991357;28;20046;-81
2023/05/18 05:23:53;;;;;;;8.00;3.10;;;8.80;99.90;;;;;;4995525;28;20041;-82
2023/05/18 05:26:20;;;;;;;8.18;2.78;;;8.80;99.90;;;;;;4987871;28;20041;-81
2023/05/18 05:28:46;;;;;;;9.05;2.60;;;8.80;99.90;;;;;;4991491;28;20042;-81
2023/05/18 05:31:12;;;;;;;11.10;3.28;;;8.90;99.90;;;;;;4989832;28;20045;-81
2023/05/18 05:33:38;;;;;;;7.88;2.70;;;9.00;99.90;;;;;;4975980;28;20041;-82
2023/05/18 05:36:05;;;;;;;9.80;2.42;;;9.00;99.90;;;;;;4992129;28;20039;-82
2023/05/18 05:38:31;;;;;;;9.70;2.92;;;9.10;99.90;;;;;;4980782;28;20140;-81
2023/05/18 05:40:57;;;;;;;14.23;2.70;;;9.10;99.90;;;;;;4978722;28;20520;-81
2023/05/18 05:43:23;;;;;;;8.23;2.40;;;9.20;99.90;;;;;;4993787;28;20121;-82
2023/05/18 05:45:48;;;;;;;7.72;2.70;;;9.40;99.90;;;;;;4989169;28;20042;-82
2023/05/18 05:48:14;;;;;;;8.80;2.67;;;9.30;99.90;;;;;;4986261;28;20042;-82
2023/05/18 05:50:40;;;;;;;8.68;2.70;;;9.50;1.00;;;;;;5006010;28;20050;-81
2023/05/18 05:53:06;;;;;;;6.65;2.55;;;9.60;1.00;;;;;;4992246;28;20118;-81
2023/05/18 05:55:40;;;;;;;6.85;2.42;;;9.50;99.90;;;;;;4995704;28;20397;-82
2023/05/18 05:58:09;;;;;;;9.55;2.90;;;9.70;1.00;;;;;;4986515;28;20393;-82
2023/05/18 06:00:35;;;;;;;7.72;2.53;;;9.80;99.90;;;;;;4975314;28;20478;-82
2023/05/18 06:03:01;;;;;;;8.70;3.20;;;10.00;99.90;;;;;;4993054;28;20084;-82
2023/05/18 06:05:27;;;;;;;5.75;2.92;;;10.00;99.90;;;;;;4993728;28;20049;-82
2023/05/18 06:07:54;;;;;;;10.00;2.70;;;10.20;13.20;;;;;;4993569;28;20035;-82
2023/05/18 06:10:19;;;;;;;8.82;2.33;;;10.10;99.90;;;;;;4989663;28;20064;-82
2023/05/18 06:12:45;;;;;;;11.73;2.90;;;10.40;99.90;;;;;;5006596;28;20061;-82
2023/05/18 06:15:11;;;;;;;14.65;2.70;;;10.60;99.90;;;;;;4976926;28;20037;-82
2023/05/18 06:17:37;;;;;;;6.75;2.30;;;10.60;1.00;;;;;;4979246;28;20037;-81
2023/05/18 06:20:06;;;;;;;7.43;2.88;;;10.60;35.30;;;;;;4979866;28;20087;-82
2023/05/18 06:22:35;;;;;;;6.85;2.22;;;10.90;99.90;;;;;;4984149;28;20132;-82
2023/05/18 06:25:00;;;;;;;10.77;2.50;;;11.00;99.90;;;;;;4997280;28;20401;-82
2023/05/18 06:27:26;;;;;;;8.35;2.47;;;11.00;1.00;;;;;;5010602;28;20053;-82
2023/05/18 06:29:52;;;;;;;5.63;2.30;;;11.30;1.00;;;;;;4981739;28;20503;-82
2023/05/18 06:32:18;;;;;;;9.43;2.40;;;11.50;38.70;;;;;;4996925;28;20033;-82
2023/05/18 06:34:44;;;;;;;7.78;2.45;;;11.50;99.90;;;;;;4985788;28;20048;-82
2023/05/18 06:37:11;;;;;;;12.57;2.65;;;11.60;1.00;;;;;;4998201;28;20037;-82
2023/05/18 06:39:36;;;;;;;8.43;2.40;;;11.10;99.90;;;;;;5008407;28;20379;-82
2023/05/18 06:42:02;;;;;;;8.52;2.58;;;11.40;99.90;;;;;;4973758;28;20093;-82
2023/05/18 06:44:28;;;;;;;6.40;2.17;;;11.50;99.90;;;;;;5001344;28;20068;-82
2023/05/18 06:46:53;;;;;;;5.55;2.60;;;11.50;99.90;;;;;;4992550;28;20442;-82
2023/05/18 06:49:19;;;;;;;9.38;2.15;;;11.50;16.80;;;;;;5000897;28;20036;-82
2023/05/18 06:51:44;;;;;;;6.90;2.40;;;11.40;1.00;;;;;;4991154;28;20560;-82
2023/05/18 06:54:10;;;;;;;8.52;2.40;;;11.60;1.00;;;;;;4992525;28;20029;-82
2023/05/18 06:56:39;;;;;;;7.95;2.05;;;11.20;65.90;;;;;;4980072;28;20049;-82
2023/05/18 06:59:04;;;;;;;5.78;2.20;;;11.20;99.90;;;;;;4979476;28;20319;-82
2023/05/18 07:01:30;;;;;;;5.82;2.45;;;11.40;99.90;;;;;;4995654;28;20099;-82
2023/05/18 07:03:56;;;;;;;6.80;2.40;;;11.40;99.90;;;;;;4996493;28;20045;-82
2023/05/18 07:06:21;;;;;;;7.80;2.50;;;11.60;99.90;;;;;;4993859;28;20038;-82
2023/05/18 07:08:47;;;;;;;5.57;2.20;;;11.70;99.90;;;;;;4995624;28;20124;-82
2023/05/18 07:11:13;;;;;;;14.65;3.20;;;11.60;99.90;;;;;;4977562;28;20034;-82
2023/05/18 07:13:39;;;;;;;9.75;2.40;;;11.50;28.40;;;;;;4996219;28;20141;-82
2023/05/18 07:16:05;;;;;;;11.07;2.40;;;11.80;99.90;;;;;;4987075;28;20042;-82
2023/05/18 07:18:32;;;;;;;7.85;2.92;;;11.90;1.00;;;;;;4986313;28;20079;-82
2023/05/18 07:20:58;;;;;;;5.65;2.83;;;12.00;1.00;;;;;;4991426;28;20164;-82
2023/05/18 07:23:23;;;;;;;10.98;2.60;;;12.10;1.00;;;;;;4997060;28;20445;-82
2023/05/18 07:25:49;;;;;;;6.57;2.50;;;11.70;99.90;;;;;;4999909;28;20239;-82
2023/05/18 07:28:15;;;;;;;8.52;2.33;;;11.90;99.90;;;;;;4998506;28;20042;-82
2023/05/18 07:30:41;;;;;;;8.35;2.53;;;11.60;99.90;;;;;;5014872;28;20041;-82
2023/05/18 07:33:07;;;;;;;8.77;2.55;;;11.70;99.90;;;;;;4982527;28;20033;-82
2023/05/18 07:35:35;;;;;;;7.93;2.60;;;11.30;99.90;;;;;;4999622;28;20543;-82
2023/05/18 07:38:01;;;;;;;7.38;2.28;;;11.60;1.00;;;;;;4997889;28;20132;-82
2023/05/18 07:40:26;;;;;;;6.28;2.45;;;11.50;99.90;;;;;;4996909;28;20823;-82
2023/05/18 07:42:52;;;;;;;8.13;2.40;;;12.00;1.00;;;;;;4982924;28;20053;-82
2023/05/18 07:45:18;;;;;;;10.75;3.00;;;12.20;99.90;;;;;;4995871;28;20376;-82
2023/05/18 07:47:43;;;;;;;6.47;2.58;;;12.20;99.90;;;;;;4998359;28;20046;-82
2023/05/18 07:50:09;;;;;;;10.95;2.95;;;12.00;99.90;;;;;;4981720;28;20049;-82
2023/05/18 07:52:35;;;;;;;7.07;2.70;;;11.50;99.90;;;;;;5000338;28;20044;-82
2023/05/18 07:55:01;;;;;;;6.20;2.60;;;12.10;99.90;;;;;;5001134;28;20044;-82
2023/05/18 07:57:29;;;;;;;5.15;2.10;;;12.10;99.90;;;;;;4994854;28;20041;-82
2023/05/18 07:59:54;;;;;;;6.53;2.42;;;12.20;99.90;;;;;;5017549;28;20045;-82
2023/05/18 08:02:20;;;;;;;6.95;2.30;;;12.50;99.90;;;;;;4977896;28;20067;-82
2023/05/18 08:04:47;;;;;;;7.05;2.83;;;12.70;99.90;;;;;;5002662;28;20064;-82
2023/05/18 08:07:13;;;;;;;5.75;2.20;;;12.90;99.90;;;;;;5012563;28;20038;-82
2023/05/18 08:09:39;;;;;;;8.68;2.55;;;12.90;86.40;;;;;;4982605;28;20408;-82
2023/05/18 08:12:06;;;;;;;5.18;2.25;;;12.30;24.40;;;;;;4982954;28;20045;-82
2023/05/18 08:14:32;;;;;;;6.47;2.22;;;11.70;1.00;;;;;;4980240;28;20046;-82
2023/05/18 08:16:57;;;;;;;5.82;2.25;;;11.80;1.00;;;;;;5007759;28;20974;-82
2023/05/18 08:19:25;;;;;;;8.93;2.30;;;12.10;36.40;;;;;;4995312;28;20076;-82
2023/05/18 08:21:51;;;;;;;8.93;2.10;;;12.60;95.00;;;;;;5000658;28;20053;-82
2023/05/18 08:24:16;;;;;;;8.02;2.22;;;13.00;95.80;;;;;;5000007;28;20042;-82
2023/05/18 08:26:42;;;;;;;8.25;2.38;;;13.00;60.00;;;;;;5011339;28;20365;-82
2023/05/18 08:29:10;;;;;;;5.72;2.67;;;12.70;1.00;;;;;;5016662;28;20045;-82
2023/05/18 08:31:37;;;;;;;5.03;2.10;;;12.80;16.80;;;;;;4978830;28;20989;-82
2023/05/18 08:34:07;;;;;;;8.38;2.35;;;12.80;1.00;;;;;;4981373;28;20159;-82
2023/05/18 08:36:39;;;;;;;7.32;2.20;;;13.20;99.90;;;;;;4995621;28;20072;-82
2023/05/18 08:39:05;;;;;;;5.82;2.08;;;12.60;99.90;;;;;;5016170;28;20045;-82
2023/05/18 08:41:59;;;;;;;5.53;2.13;;;12.50;99.90;;;;;;4991966;28;20126;-82
2023/05/18 08:44:39;;;;;;;7.43;2.22;;;13.00;99.90;;;;;;4985109;28;20046;-82
2023/05/18 08:47:10;;;;;;;5.65;2.35;;;13.70;21.10;;;;;;4995912;28;20453;-82
2023/05/18 08:49:36;;;;;;;6.88;2.35;;;14.20;70.70;;;;;;4979828;28;20413;-83
2023/05/18 08:52:03;;;;;;;7.97;2.38;;;14.50;1.00;;;;;;5017470;28;20041;-83
2023/05/18 08:54:31;;;;;;;6.25;2.30;;;14.40;1.00;;;;;;4984956;28;20037;-82
2023/05/18 08:56:58;;;;;;;8.45;2.20;;;14.60;1.00;;;;;;4996289;28;20052;-82
2023/05/18 08:59:30;;;;;;;8.38;2.30;;;14.60;1.00;;;;;;4994198;28;20115;-82
2023/05/18 09:01:56;;;;;;;3.72;2.03;;;14.50;99.90;;;;;;5008558;28;20590;-83
2023/05/18 09:04:23;;;;;;;7.85;2.63;;;14.50;99.90;;;;;;4981814;28;20049;-83
2023/05/18 09:06:50;;;;;;;7.88;2.13;;;14.70;1.00;;;;;;5009618;28;20381;-82
2023/05/18 09:09:17;;;;;;;6.95;2.38;;;14.80;1.00;;;;;;4995833;28;20465;-82
2023/05/18 09:11:45;;;;;;;6.03;1.75;;;15.10;1.00;;;;;;4990375;28;20046;-82
2023/05/18 09:14:11;;;;;;;17.45;2.70;;;15.00;99.90;;;;;;4989870;28;20256;-82
2023/05/18 09:16:40;;;;;;;7.22;2.13;;;14.80;99.90;;;;;;4990743;28;20045;-82
2023/05/18 09:19:05;;;;;;;8.15;2.33;;;15.00;99.90;;;;;;4974887;28;20216;-82
2023/05/18 09:21:31;;;;;;;6.28;2.08;;;14.10;99.90;;;;;;4993867;28;20200;-83
2023/05/18 09:23:59;;;;;;;8.77;2.20;;;14.90;99.90;;;;;;4975907;28;20038;-82
2023/05/18 09:26:26;;;;;;;6.38;2.20;;;15.50;99.90;;;;;;4974234;28;20042;-82
2023/05/18 09:28:55;;;;;;;9.02;2.95;;;15.60;99.90;;;;;;4957676;28;20046;-82
2023/05/18 09:31:23;;;;;;;9.02;2.00;;;16.20;1.00;;;;;;4975169;28;20267;-83
2023/05/18 09:33:50;;;;;;;6.40;2.00;;;16.60;99.90;;;;;;4961533;28;20042;-82
2023/05/18 09:36:16;;;;;;;12.15;2.38;;;16.30;99.90;;;;;;4974200;28;20117;-82
2023/05/18 09:38:45;;;;;;;6.22;2.00;;;15.90;99.90;;;;;;4990698;28;20116;-82
2023/05/18 09:41:13;;;;;;;6.45;1.90;;;15.00;99.90;;;;;;4975798;28;20433;-82
2023/05/18 09:43:40;;;;;;;6.50;1.90;;;15.60;99.90;;;;;;4969994;28;20045;-82
2023/05/18 09:46:13;;;;;;;7.13;2.10;;;16.20;99.90;;;;;;4957916;28;20052;-82
2023/05/18 09:48:44;;;;;;;8.63;1.92;;;16.60;99.90;;;;;;4975537;28;20049;-82
2023/05/18 09:51:15;;;;;;;4.60;1.75;;;16.40;99.90;;;;;;4981796;28;20084;-83
2023/05/18 09:53:52;;;;;;;7.20;2.30;;;17.00;99.90;;;;;;4975366;28;20799;-82
2023/05/18 09:56:17;;;;;;;5.03;2.15;;;16.60;99.90;;;;;;4985802;28;20124;-83
2023/05/18 09:58:44;;;;;;;5.32;2.00;;;16.80;99.90;;;;;;4971484;28;20046;-82
2023/05/18 10:01:10;;;;;;;5.82;2.10;;;16.20;99.90;;;;;;4960857;28;20517;-82
2023/05/18 10:03:37;;;;;;;5.95;2.20;;;16.00;99.90;;;;;;4974833;28;20603;-83
2023/05/18 10:06:08;;;;;;;7.32;2.13;;;16.50;99.90;;;;;;4969550;28;20180;-83
2023/05/18 10:08:36;;;;;;;4.32;1.90;;;16.60;99.90;;;;;;4963297;28;20229;-83
2023/05/18 10:11:02;;;;;;;5.03;2.03;;;16.80;99.90;;;;;;4991396;28;20129;-82
2023/05/18 10:13:30;;;;;;;6.00;1.85;;;16.80;99.90;;;;;;4994597;28;20049;-83
2023/05/18 10:16:01;;;;;;;5.07;1.77;;;17.30;99.90;;;;;;4990837;28;20049;-83
2023/05/18 10:18:28;;;;;;;7.97;2.30;;;17.10;99.90;;;;;;4996574;28;20052;-83
2023/05/18 10:20:57;;;;;;;3.13;1.80;;;16.50;99.90;;;;;;4979709;28;20048;-83
2023/05/18 10:23:24;;;;;;;7.47;1.88;;;16.80;99.90;;;;;;4996192;28;20041;-82
2023/05/18 10:25:51;;;;;;;7.65;2.30;;;16.10;89.00;;;;;;4974885;28;20046;-82
2023/05/18 10:28:26;;;;;;;4.25;2.03;;;15.60;56.70;;;;;;4980445;28;20041;-83
2023/05/18 10:30:57;;;;;;;4.68;2.20;;;14.40;1.00;;;;;;4980737;28;20129;-83
2023/05/18 10:33:27;;;;;;;4.82;1.80;;;15.80;99.90;;;;;;4991853;28;20049;-83
2023/05/18 10:35:53;;;;;;;5.78;1.83;;;16.30;99.90;;;;;;5000722;28;20423;-82
2023/05/18 10:38:24;;;;;;;5.85;1.98;;;15.80;88.10;;;;;;4978421;28;20585;-82
2023/05/18 10:40:52;;;;;;;5.38;1.92;;;16.40;99.90;;;;;;4980181;28;20083;-83
2023/05/18 10:43:20;;;;;;;6.18;2.15;;;16.20;99.90;;;;;;5011031;28;20054;-83
2023/05/18 10:46:00;;;;;;;14.95;2.30;;;15.80;69.50;;;;;;4994102;28;20128;-83
2023/05/18 10:48:27;;;;;;;6.65;2.47;;;15.60;72.00;;;;;;4975287;28;20050;-82
2023/05/18 10:50:55;;;;;;;8.30;2.08;;;15.80;99.90;;;;;;4996677;28;20041;-83
2023/05/18 10:53:28;;;;;;;8.77;2.50;;;15.20;32.20;;;;;;4976768;28;20108;-83
2023/05/18 10:55:54;;;;;;;4.82;2.08;;;15.80;70.30;;;;;;4992080;28;20045;-83
2023/05/18 10:58:23;;;;;;;9.15;2.15;;;15.90;82.50;;;;;;4997094;28;20048;-82
2023/05/18 11:00:52;;;;;;;9.68;2.00;;;14.70;1.00;;;;;;4996210;28;20045;-83
2023/05/18 11:03:19;;;;;;;10.32;2.45;;;14.60;1.00;;;;;;5001407;28;20253;-83
2023/05/18 11:06:01;;;;;;;6.30;2.10;;;14.40;1.00;;;;;;4978388;28;20041;-82
2023/05/18 11:08:27;;;;;;;7.80;2.47;;;14.60;1.00;;;;;;5003995;28;20048;-83
2023/05/18 11:11:06;;;;;;;7.30;2.42;;;15.90;92.30;;;;;;5015092;28;20046;-83
2023/05/18 11:13:33;;;;;;;4.75;1.95;;;15.20;1.00;;;;;;4978026;28;20413;-82
2023/05/18 11:15:59;;;;;;;5.63;1.90;;;16.20;44.10;;;;;;4978688;28;20041;-83
2023/05/18 11:18:44;;;;;;;7.85;2.50;;;16.20;74.00;;;;;;4966215;28;20100;-83
2023/05/18 11:21:31;;;;;;;7.90;2.72;;;17.10;99.90;;;;;;4978066;28;20056;-82
2023/05/18 11:24:17;;;;;;;6.18;2.17;;;16.30;1.00;;;;;;4976718;28;20121;-83
2023/05/18 11:26:55;;;;;;;8.13;2.13;;;15.50;1.00;;;;;;4972531;28;20042;-83
2023/05/18 11:29:24;;;;;;;4.90;2.30;;;15.50;27.80;;;;;;4977522;28;20041;-83
2023/05/18 11:31:52;;;;;;;6.32;2.63;;;15.40;61.60;;;;;;4995759;28;20049;-83
2023/05/18 11:34:43;;;;;;;5.05;2.00;;;16.30;77.90;;;;;;4997692;28;20034;-83
2023/05/18 11:37:10;;;;;;;6.85;2.40;;;17.10;99.90;;;;;;4978502;28;20049;-82
2023/05/18 11:39:36;;;;;;;7.95;2.45;;;16.70;30.50;;;;;;4994608;28;20064;-83
2023/05/18 11:42:13;;;;;;;4.93;2.30;;;16.20;1.00;;;;;;4994177;28;20042;-83
2023/05/18 11:44:39;;;;;;;9.05;2.72;;;16.50;61.30;;;;;;4979287;28;20104;-83
2023/05/18 11:47:10;;;;;;;6.18;2.30;;;16.20;1.00;;;;;;4983426;28;20046;-83
2023/05/18 11:49:47;;;;;;;6.20;2.47;;;16.60;27.30;;;;;;4976970;28;20050;-83
2023/05/18 11:52:22;;;;;;;9.10;2.35;;;16.40;1.80;;;;;;4978999;28;20096;-84
2023/05/18 11:54:54;;;;;;;7.20;2.20;;;16.40;44.90;;;;;;4965115;28;20059;-83
2023/05/18 11:57:32;;;;;;;6.95;2.20;;;17.40;91.40;;;;;;4975538;28;20334;-83
2023/05/18 12:00:00;;;;;;;6.47;2.30;;;16.50;1.00;;;;;;4994393;28;20096;-83
2023/05/18 12:02:32;;;;;;;5.38;2.58;;;17.90;91.20;;;;;;4982827;28;20229;-84
2023/05/18 12:04:59;;;;;;;9.77;2.45;;;17.30;19.40;;;;;;4996872;28;20042;-83
2023/05/18 12:07:27;;;;;;;4.40;2.20;;;16.10;1.00;;;;;;4966311;28;20334;-83
2023/05/18 12:09:57;;;;;;;4.93;2.05;;;16.20;1.00;;;;;;4976199;28;20045;-84
2023/05/18 12:12:23;;;;;;;6.70;2.35;;;17.10;99.90;;;;;;4983677;28;20119;-84
2023/05/18 12:14:57;;;;;;;8.90;2.80;;;17.70;98.60;;;;;;4996609;28;20045;-82
2023/05/18 12:17:36;;;;;;;5.15;2.33;;;18.00;97.20;;;;;;5002118;28;20069;-83
2023/05/18 12:20:03;;;;;;;5.45;2.20;;;18.20;58.00;;;;;;4995165;28;20053;-83
2023/05/18 12:22:29;;;;;;;8.73;2.58;;;17.60;5.10;;;;;;5001024;28;20099;-83
2023/05/18 12:24:54;;;;;;;5.88;2.67;;;17.20;1.00;;;;;;4982733;28;20038;-83
2023/05/18 12:27:21;;;;;;;6.15;2.40;;;17.00;1.00;;;;;;4993548;28;20046;-83
2023/05/18 12:29:48;;;;;;;7.20;2.47;;;16.20;1.00;;;;;;4996713;28;20127;-83
2023/05/18 12:32:14;;;;;;;7.25;2.65;;;16.40;1.00;;;;;;4984485;28;20044;-83
2023/05/18 12:34:43;;;;;;;8.52;3.33;;;17.50;53.00;;;;;;5004428;28;20041;-84
2023/05/18 12:37:09;;;;;;;5.78;2.58;;;17.20;49.40;;;;;;5000537;28;20096;-84
2023/05/18 12:39:36;;;;;;;7.82;2.58;;;17.10;1.00;;;;;;5014140;28;20472;-83
2023/05/18 12:42:09;;;;;;;8.98;2.83;;;16.40;1.00;;;;;;5008423;28;20395;-83
2023/05/18 12:44:35;;;;;;;6.88;2.60;;;17.70;39.30;;;;;;5008849;28;20049;-83
2023/05/18 12:47:04;;;;;;;8.95;3.03;;;16.50;1.00;;;;;;4992920;28;20073;-83
2023/05/18 12:49:36;;;;;;;6.68;2.88;;;16.90;1.00;;;;;;5010945;28;20057;-83
2023/05/18 12:52:09;;;;;;;4.88;3.00;;;17.00;1.00;;;;;;4993937;28;20049;-84
2023/05/18 12:54:34;;;;;;;9.15;2.70;;;16.90;1.00;;;;;;4982085;28;20609;-83
2023/05/18 12:57:06;;;;;;;6.50;2.28;;;17.10;1.00;;;;;;4989222;28;20191;-83
2023/05/18 12:59:32;;;;;;;8.90;2.80;;;16.40;1.00;;;;;;4982899;28;20099;-83